sensor_id;sensor_type;location;lat;lon;timestamp;P1;durP1;ratioP1;P2;durP2;ratioP2
37445;SDS011;23307;51.136;14.942;2023-03-01T00:01:24;33.13;;;21.00;;
37445;SDS011;23307;51.136;14.942;2023-03-01T00:03:54;32.93;;;20.33;;
37445;SDS011;23307;51.136;14.942;2023-03-01T00:06:21;32.83;;;20.73;;
37445;SDS011;23307;51.136;14.942;2023-03-01T00:08:48;33.20;;;20.77;;
37445;SDS011;23307;51.136;14.942;2023-03-01T00:11:21;34.30;;;21.03;;
37445;SDS011;23307;51.136;14.942;2023-03-01T00:13:49;33.90;;;21.77;;
37445;SDS011;23307;51.136;14.942;2023-03-01T00:16:17;36.90;;;21.40;;
37445;SDS011;23307;51.136;14.942;2023-03-01T00:18:44;35.60;;;20.67;;
37445;SDS011;23307;51.136;14.942;2023-03-01T00:21:10;32.90;;;20.50;;
37445;SDS011;23307;51.136;14.942;2023-03-01T00:23:36;35.97;;;21.43;;
37445;SDS011;23307;51.136;14.942;2023-03-01T00:26:05;32.50;;;20.57;;
37445;SDS011;23307;51.136;14.942;2023-03-01T00:28:32;34.50;;;21.50;;
37445;SDS011;23307;51.136;14.942;2023-03-01T00:31:04;37.53;;;22.47;;
37445;SDS011;23307;51.136;14.942;2023-03-01T00:33:35;35.70;;;21.03;;
37445;SDS011;23307;51.136;14.942;2023-03-01T00:36:02;37.07;;;22.27;;
37445;SDS011;23307;51.136;14.942;2023-03-01T00:38:28;36.17;;;21.67;;
37445;SDS011;23307;51.136;14.942;2023-03-01T00:40:54;37.07;;;22.20;;
37445;SDS011;23307;51.136;14.942;2023-03-01T00:43:20;36.97;;;22.40;;
37445;SDS011;23307;51.136;14.942;2023-03-01T00:45:45;36.73;;;21.80;;
37445;SDS011;23307;51.136;14.942;2023-03-01T00:48:11;37.80;;;23.30;;
37445;SDS011;23307;51.136;14.942;2023-03-01T00:50:36;35.53;;;22.67;;
37445;SDS011;23307;51.136;14.942;2023-03-01T00:53:02;36.43;;;22.47;;
37445;SDS011;23307;51.136;14.942;2023-03-01T00:55:27;39.97;;;22.80;;
37445;SDS011;23307;51.136;14.942;2023-03-01T00:57:53;37.67;;;21.83;;
37445;SDS011;23307;51.136;14.942;2023-03-01T01:00:19;39.17;;;23.10;;
37445;SDS011;23307;51.136;14.942;2023-03-01T01:02:45;42.13;;;23.90;;
37445;SDS011;23307;51.136;14.942;2023-03-01T01:05:11;42.90;;;23.17;;
37445;SDS011;23307;51.136;14.942;2023-03-01T01:07:37;38.07;;;22.93;;
37445;SDS011;23307;51.136;14.942;2023-03-01T01:10:03;38.73;;;22.97;;
37445;SDS011;23307;51.136;14.942;2023-03-01T01:12:29;39.23;;;23.60;;
37445;SDS011;23307;51.136;14.942;2023-03-01T01:14:54;36.13;;;21.67;;
37445;SDS011;23307;51.136;14.942;2023-03-01T01:17:20;38.37;;;22.63;;
37445;SDS011;23307;51.136;14.942;2023-03-01T01:19:45;37.47;;;23.90;;
37445;SDS011;23307;51.136;14.942;2023-03-01T01:22:11;39.00;;;22.13;;
37445;SDS011;23307;51.136;14.942;2023-03-01T01:24:36;36.43;;;22.83;;
37445;SDS011;23307;51.136;14.942;2023-03-01T01:27:02;39.43;;;22.90;;
37445;SDS011;23307;51.136;14.942;2023-03-01T01:29:28;39.30;;;23.23;;
37445;SDS011;23307;51.136;14.942;2023-03-01T01:31:54;38.23;;;21.83;;
37445;SDS011;23307;51.136;14.942;2023-03-01T01:34:20;36.33;;;22.73;;
37445;SDS011;23307;51.136;14.942;2023-03-01T01:36:50;36.53;;;21.47;;
37445;SDS011;23307;51.136;14.942;2023-03-01T01:39:18;37.20;;;21.90;;
37445;SDS011;23307;51.136;14.942;2023-03-01T01:41:45;38.13;;;22.07;;
37445;SDS011;23307;51.136;14.942;2023-03-01T01:44:21;35.70;;;21.40;;
37445;SDS011;23307;51.136;14.942;2023-03-01T01:49:42;38.00;;;23.03;;
37445;SDS011;23307;51.136;14.942;2023-03-01T01:52:16;34.90;;;20.87;;
37445;SDS011;23307;51.136;14.942;2023-03-01T01:55:02;35.33;;;21.87;;
37445;SDS011;23307;51.136;14.942;2023-03-01T01:57:33;33.97;;;21.20;;
37445;SDS011;23307;51.136;14.942;2023-03-01T02:00:09;38.10;;;22.80;;
37445;SDS011;23307;51.136;14.942;2023-03-01T02:02:37;36.33;;;22.67;;
37445;SDS011;23307;51.136;14.942;2023-03-01T02:05:06;32.37;;;20.70;;
37445;SDS011;23307;51.136;14.942;2023-03-01T02:07:38;34.60;;;21.37;;
37445;SDS011;23307;51.136;14.942;2023-03-01T02:10:05;33.90;;;20.90;;
37445;SDS011;23307;51.136;14.942;2023-03-01T02:12:30;34.30;;;21.27;;
37445;SDS011;23307;51.136;14.942;2023-03-01T02:14:57;33.40;;;21.47;;
37445;SDS011;23307;51.136;14.942;2023-03-01T02:17:22;32.87;;;20.63;;
37445;SDS011;23307;51.136;14.942;2023-03-01T02:19:52;35.37;;;20.77;;
37445;SDS011;23307;51.136;14.942;2023-03-01T02:22:32;35.20;;;21.67;;
37445;SDS011;23307;51.136;14.942;2023-03-01T02:25:19;32.67;;;21.00;;
37445;SDS011;23307;51.136;14.942;2023-03-01T02:30:43;37.77;;;22.30;;
37445;SDS011;23307;51.136;14.942;2023-03-01T02:33:30;35.07;;;21.83;;
37445;SDS011;23307;51.136;14.942;2023-03-01T02:35:57;35.13;;;21.03;;
37445;SDS011;23307;51.136;14.942;2023-03-01T02:38:25;33.77;;;20.63;;
37445;SDS011;23307;51.136;14.942;2023-03-01T02:40:51;31.07;;;20.37;;
37445;SDS011;23307;51.136;14.942;2023-03-01T02:43:17;35.40;;;21.13;;
37445;SDS011;23307;51.136;14.942;2023-03-01T02:45:49;33.73;;;21.07;;
37445;SDS011;23307;51.136;14.942;2023-03-01T02:48:16;36.43;;;21.47;;
37445;SDS011;23307;51.136;14.942;2023-03-01T02:51:25;32.13;;;20.73;;
37445;SDS011;23307;51.136;14.942;2023-03-01T02:53:34;34.67;;;21.63;;
37445;SDS011;23307;51.136;14.942;2023-03-01T02:56:13;37.17;;;23.50;;
37445;SDS011;23307;51.136;14.942;2023-03-01T02:58:40;36.93;;;22.10;;
37445;SDS011;23307;51.136;14.942;2023-03-01T03:01:11;33.10;;;21.33;;
37445;SDS011;23307;51.136;14.942;2023-03-01T03:03:38;35.20;;;21.47;;
37445;SDS011;23307;51.136;14.942;2023-03-01T03:06:04;37.30;;;23.47;;
37445;SDS011;23307;51.136;14.942;2023-03-01T03:08:29;35.30;;;21.77;;
37445;SDS011;23307;51.136;14.942;2023-03-01T03:10:55;38.57;;;22.87;;
37445;SDS011;23307;51.136;14.942;2023-03-01T03:13:21;39.40;;;21.90;;
37445;SDS011;23307;51.136;14.942;2023-03-01T03:15:47;38.93;;;24.13;;
37445;SDS011;23307;51.136;14.942;2023-03-01T03:18:16;37.30;;;23.23;;
37445;SDS011;23307;51.136;14.942;2023-03-01T03:20:42;36.80;;;22.40;;
37445;SDS011;23307;51.136;14.942;2023-03-01T03:23:08;40.63;;;24.27;;
37445;SDS011;23307;51.136;14.942;2023-03-01T03:25:34;36.27;;;23.13;;
37445;SDS011;23307;51.136;14.942;2023-03-01T03:28:02;38.57;;;23.93;;
37445;SDS011;23307;51.136;14.942;2023-03-01T03:30:34;38.00;;;24.43;;
37445;SDS011;23307;51.136;14.942;2023-03-01T03:33:01;41.50;;;24.67;;
37445;SDS011;23307;51.136;14.942;2023-03-01T03:35:34;36.80;;;23.83;;
37445;SDS011;23307;51.136;14.942;2023-03-01T03:38:05;40.90;;;23.93;;
37445;SDS011;23307;51.136;14.942;2023-03-01T03:40:35;37.67;;;23.60;;
37445;SDS011;23307;51.136;14.942;2023-03-01T03:43:03;38.67;;;23.83;;
37445;SDS011;23307;51.136;14.942;2023-03-01T03:45:30;37.57;;;23.73;;
37445;SDS011;23307;51.136;14.942;2023-03-01T03:47:58;39.93;;;24.00;;
37445;SDS011;23307;51.136;14.942;2023-03-01T03:50:24;45.10;;;25.87;;
37445;SDS011;23307;51.136;14.942;2023-03-01T03:52:49;39.13;;;24.27;;
37445;SDS011;23307;51.136;14.942;2023-03-01T03:55:15;42.03;;;25.90;;
37445;SDS011;23307;51.136;14.942;2023-03-01T03:57:44;42.03;;;25.40;;
37445;SDS011;23307;51.136;14.942;2023-03-01T04:00:19;41.17;;;24.33;;
37445;SDS011;23307;51.136;14.942;2023-03-01T04:02:46;42.07;;;24.47;;
37445;SDS011;23307;51.136;14.942;2023-03-01T04:05:13;41.90;;;25.20;;
37445;SDS011;23307;51.136;14.942;2023-03-01T04:07:40;41.40;;;24.80;;
37445;SDS011;23307;51.136;14.942;2023-03-01T04:10:08;42.47;;;25.53;;
37445;SDS011;23307;51.136;14.942;2023-03-01T04:12:35;41.57;;;24.83;;
37445;SDS011;23307;51.136;14.942;2023-03-01T04:15:01;37.27;;;23.87;;
37445;SDS011;23307;51.136;14.942;2023-03-01T04:17:37;38.30;;;23.53;;
37445;SDS011;23307;51.136;14.942;2023-03-01T04:20:04;41.30;;;24.87;;
37445;SDS011;23307;51.136;14.942;2023-03-01T04:22:30;41.17;;;25.23;;
37445;SDS011;23307;51.136;14.942;2023-03-01T04:24:56;42.40;;;24.90;;
37445;SDS011;23307;51.136;14.942;2023-03-01T04:27:23;39.70;;;24.63;;
37445;SDS011;23307;51.136;14.942;2023-03-01T04:29:48;41.23;;;26.03;;
37445;SDS011;23307;51.136;14.942;2023-03-01T04:32:14;41.43;;;26.10;;
37445;SDS011;23307;51.136;14.942;2023-03-01T04:34:41;44.83;;;27.47;;
37445;SDS011;23307;51.136;14.942;2023-03-01T04:37:06;48.30;;;28.43;;
37445;SDS011;23307;51.136;14.942;2023-03-01T04:39:32;46.03;;;28.17;;
37445;SDS011;23307;51.136;14.942;2023-03-01T04:41:57;44.67;;;27.60;;
37445;SDS011;23307;51.136;14.942;2023-03-01T04:44:23;44.53;;;27.17;;
37445;SDS011;23307;51.136;14.942;2023-03-01T04:46:49;43.23;;;26.53;;
37445;SDS011;23307;51.136;14.942;2023-03-01T04:49:15;42.90;;;25.37;;
37445;SDS011;23307;51.136;14.942;2023-03-01T04:51:41;39.90;;;26.03;;
37445;SDS011;23307;51.136;14.942;2023-03-01T04:54:06;43.13;;;25.73;;
37445;SDS011;23307;51.136;14.942;2023-03-01T04:56:33;45.03;;;26.73;;
37445;SDS011;23307;51.136;14.942;2023-03-01T04:58:59;42.33;;;25.97;;
37445;SDS011;23307;51.136;14.942;2023-03-01T05:01:25;43.20;;;25.40;;
37445;SDS011;23307;51.136;14.942;2023-03-01T05:03:51;41.27;;;25.13;;
37445;SDS011;23307;51.136;14.942;2023-03-01T05:06:17;42.93;;;26.83;;
37445;SDS011;23307;51.136;14.942;2023-03-01T05:08:44;40.80;;;26.20;;
37445;SDS011;23307;51.136;14.942;2023-03-01T05:11:10;43.20;;;26.20;;
37445;SDS011;23307;51.136;14.942;2023-03-01T05:13:37;45.13;;;27.87;;
37445;SDS011;23307;51.136;14.942;2023-03-01T05:16:04;44.43;;;28.13;;
37445;SDS011;23307;51.136;14.942;2023-03-01T05:18:31;47.33;;;27.53;;
37445;SDS011;23307;51.136;14.942;2023-03-01T05:21:08;46.23;;;28.27;;
37445;SDS011;23307;51.136;14.942;2023-03-01T05:23:35;52.60;;;29.20;;
37445;SDS011;23307;51.136;14.942;2023-03-01T05:26:02;45.77;;;28.90;;
37445;SDS011;23307;51.136;14.942;2023-03-01T05:28:29;48.63;;;30.50;;
37445;SDS011;23307;51.136;14.942;2023-03-01T05:30:55;49.27;;;27.97;;
37445;SDS011;23307;51.136;14.942;2023-03-01T05:33:21;47.70;;;28.10;;
37445;SDS011;23307;51.136;14.942;2023-03-01T05:35:47;46.80;;;27.93;;
37445;SDS011;23307;51.136;14.942;2023-03-01T05:38:14;48.70;;;28.87;;
37445;SDS011;23307;51.136;14.942;2023-03-01T05:40:40;46.93;;;28.57;;
37445;SDS011;23307;51.136;14.942;2023-03-01T05:43:08;42.30;;;27.93;;
37445;SDS011;23307;51.136;14.942;2023-03-01T05:45:35;46.47;;;27.47;;
37445;SDS011;23307;51.136;14.942;2023-03-01T05:48:02;46.70;;;27.53;;
37445;SDS011;23307;51.136;14.942;2023-03-01T05:50:31;48.53;;;28.87;;
37445;SDS011;23307;51.136;14.942;2023-03-01T05:52:58;45.77;;;28.57;;
37445;SDS011;23307;51.136;14.942;2023-03-01T05:55:34;51.33;;;30.60;;
37445;SDS011;23307;51.136;14.942;2023-03-01T05:58:04;51.40;;;31.47;;
37445;SDS011;23307;51.136;14.942;2023-03-01T06:00:32;53.90;;;32.47;;
37445;SDS011;23307;51.136;14.942;2023-03-01T06:02:59;46.67;;;29.93;;
37445;SDS011;23307;51.136;14.942;2023-03-01T06:05:25;47.97;;;31.40;;
37445;SDS011;23307;51.136;14.942;2023-03-01T06:07:51;51.17;;;30.67;;
37445;SDS011;23307;51.136;14.942;2023-03-01T06:10:18;51.83;;;31.20;;
37445;SDS011;23307;51.136;14.942;2023-03-01T06:12:45;47.67;;;29.70;;
37445;SDS011;23307;51.136;14.942;2023-03-01T06:15:11;51.97;;;29.20;;
37445;SDS011;23307;51.136;14.942;2023-03-01T06:17:39;51.57;;;29.97;;
37445;SDS011;23307;51.136;14.942;2023-03-01T06:20:28;46.60;;;29.60;;
37445;SDS011;23307;51.136;14.942;2023-03-01T06:22:53;48.60;;;31.03;;
37445;SDS011;23307;51.136;14.942;2023-03-01T06:25:19;46.30;;;29.13;;
37445;SDS011;23307;51.136;14.942;2023-03-01T06:27:46;47.53;;;30.90;;
37445;SDS011;23307;51.136;14.942;2023-03-01T06:30:14;51.13;;;31.60;;
37445;SDS011;23307;51.136;14.942;2023-03-01T06:32:41;46.60;;;30.50;;
37445;SDS011;23307;51.136;14.942;2023-03-01T06:35:07;51.80;;;32.57;;
37445;SDS011;23307;51.136;14.942;2023-03-01T06:37:36;52.80;;;32.00;;
37445;SDS011;23307;51.136;14.942;2023-03-01T06:40:03;54.40;;;33.07;;
37445;SDS011;23307;51.136;14.942;2023-03-01T06:42:33;60.83;;;33.57;;
37445;SDS011;23307;51.136;14.942;2023-03-01T06:44:59;53.37;;;32.47;;
37445;SDS011;23307;51.136;14.942;2023-03-01T06:47:25;51.83;;;32.40;;
37445;SDS011;23307;51.136;14.942;2023-03-01T06:49:50;52.90;;;32.47;;
37445;SDS011;23307;51.136;14.942;2023-03-01T06:52:16;55.00;;;31.73;;
37445;SDS011;23307;51.136;14.942;2023-03-01T06:54:41;56.87;;;32.50;;
37445;SDS011;23307;51.136;14.942;2023-03-01T06:57:07;47.63;;;31.30;;
37445;SDS011;23307;51.136;14.942;2023-03-01T06:59:32;53.53;;;32.63;;
37445;SDS011;23307;51.136;14.942;2023-03-01T07:01:58;54.67;;;33.00;;
37445;SDS011;23307;51.136;14.942;2023-03-01T07:04:23;51.47;;;32.60;;
37445;SDS011;23307;51.136;14.942;2023-03-01T07:06:49;59.33;;;34.67;;
37445;SDS011;23307;51.136;14.942;2023-03-01T07:09:20;57.47;;;36.00;;
37445;SDS011;23307;51.136;14.942;2023-03-01T07:11:47;56.07;;;35.00;;
37445;SDS011;23307;51.136;14.942;2023-03-01T07:14:12;60.03;;;34.73;;
37445;SDS011;23307;51.136;14.942;2023-03-01T07:16:38;56.37;;;35.70;;
37445;SDS011;23307;51.136;14.942;2023-03-01T07:19:04;55.63;;;33.97;;
37445;SDS011;23307;51.136;14.942;2023-03-01T07:21:30;52.13;;;32.87;;
37445;SDS011;23307;51.136;14.942;2023-03-01T07:23:56;52.10;;;31.90;;
37445;SDS011;23307;51.136;14.942;2023-03-01T07:26:21;49.23;;;28.57;;
37445;SDS011;23307;51.136;14.942;2023-03-01T07:28:47;47.00;;;27.53;;
37445;SDS011;23307;51.136;14.942;2023-03-01T07:31:12;46.90;;;28.40;;
37445;SDS011;23307;51.136;14.942;2023-03-01T07:33:38;49.53;;;29.10;;
37445;SDS011;23307;51.136;14.942;2023-03-01T07:36:04;48.97;;;29.10;;
37445;SDS011;23307;51.136;14.942;2023-03-01T07:38:30;50.23;;;30.90;;
37445;SDS011;23307;51.136;14.942;2023-03-01T07:40:59;45.00;;;29.27;;
37445;SDS011;23307;51.136;14.942;2023-03-01T07:43:26;49.93;;;30.50;;
37445;SDS011;23307;51.136;14.942;2023-03-01T07:45:52;49.97;;;31.13;;
37445;SDS011;23307;51.136;14.942;2023-03-01T07:48:18;55.23;;;31.17;;
37445;SDS011;23307;51.136;14.942;2023-03-01T07:50:43;49.80;;;28.50;;
37445;SDS011;23307;51.136;14.942;2023-03-01T07:53:09;48.50;;;29.03;;
37445;SDS011;23307;51.136;14.942;2023-03-01T07:55:35;45.03;;;28.80;;
37445;SDS011;23307;51.136;14.942;2023-03-01T07:58:01;46.83;;;28.07;;
37445;SDS011;23307;51.136;14.942;2023-03-01T08:00:26;44.63;;;27.07;;
37445;SDS011;23307;51.136;14.942;2023-03-01T08:02:52;43.97;;;27.33;;
37445;SDS011;23307;51.136;14.942;2023-03-01T08:05:17;43.20;;;26.57;;
37445;SDS011;23307;51.136;14.942;2023-03-01T08:07:43;45.40;;;27.17;;
37445;SDS011;23307;51.136;14.942;2023-03-01T08:10:09;48.80;;;29.27;;
37445;SDS011;23307;51.136;14.942;2023-03-01T08:12:35;45.83;;;26.87;;
37445;SDS011;23307;51.136;14.942;2023-03-01T08:15:00;44.23;;;28.40;;
37445;SDS011;23307;51.136;14.942;2023-03-01T08:17:26;46.90;;;29.57;;
37445;SDS011;23307;51.136;14.942;2023-03-01T08:19:51;44.07;;;27.57;;
37445;SDS011;23307;51.136;14.942;2023-03-01T08:22:17;43.13;;;27.57;;
37445;SDS011;23307;51.136;14.942;2023-03-01T08:24:42;46.10;;;29.40;;
37445;SDS011;23307;51.136;14.942;2023-03-01T08:27:08;44.30;;;28.30;;
37445;SDS011;23307;51.136;14.942;2023-03-01T08:29:33;44.47;;;28.63;;
37445;SDS011;23307;51.136;14.942;2023-03-01T08:31:59;46.87;;;28.63;;
37445;SDS011;23307;51.136;14.942;2023-03-01T08:34:24;48.67;;;28.73;;
37445;SDS011;23307;51.136;14.942;2023-03-01T08:36:51;44.30;;;28.93;;
37445;SDS011;23307;51.136;14.942;2023-03-01T08:39:17;50.17;;;30.47;;
37445;SDS011;23307;51.136;14.942;2023-03-01T08:41:44;45.50;;;29.43;;
37445;SDS011;23307;51.136;14.942;2023-03-01T08:44:11;48.60;;;29.23;;
37445;SDS011;23307;51.136;14.942;2023-03-01T08:46:38;45.63;;;28.77;;
37445;SDS011;23307;51.136;14.942;2023-03-01T08:49:10;49.37;;;30.20;;
37445;SDS011;23307;51.136;14.942;2023-03-01T08:51:38;50.80;;;30.33;;
37445;SDS011;23307;51.136;14.942;2023-03-01T08:54:04;47.43;;;29.43;;
37445;SDS011;23307;51.136;14.942;2023-03-01T08:56:32;47.70;;;30.50;;
37445;SDS011;23307;51.136;14.942;2023-03-01T08:58:58;47.97;;;28.27;;
37445;SDS011;23307;51.136;14.942;2023-03-01T09:01:24;44.63;;;28.87;;
37445;SDS011;23307;51.136;14.942;2023-03-01T09:03:49;46.23;;;29.90;;
37445;SDS011;23307;51.136;14.942;2023-03-01T09:06:15;44.00;;;29.20;;
37445;SDS011;23307;51.136;14.942;2023-03-01T09:08:42;45.50;;;28.57;;
37445;SDS011;23307;51.136;14.942;2023-03-01T09:11:10;46.83;;;29.30;;
37445;SDS011;23307;51.136;14.942;2023-03-01T09:13:37;48.07;;;30.27;;
37445;SDS011;23307;51.136;14.942;2023-03-01T09:16:04;50.93;;;30.33;;
37445;SDS011;23307;51.136;14.942;2023-03-01T09:18:31;49.53;;;30.80;;
37445;SDS011;23307;51.136;14.942;2023-03-01T09:21:01;48.90;;;30.30;;
37445;SDS011;23307;51.136;14.942;2023-03-01T09:23:31;50.13;;;31.07;;
37445;SDS011;23307;51.136;14.942;2023-03-01T09:26:01;49.80;;;30.90;;
37445;SDS011;23307;51.136;14.942;2023-03-01T09:28:28;50.63;;;30.50;;
37445;SDS011;23307;51.136;14.942;2023-03-01T09:30:53;47.57;;;29.90;;
37445;SDS011;23307;51.136;14.942;2023-03-01T09:33:23;48.63;;;30.00;;
37445;SDS011;23307;51.136;14.942;2023-03-01T09:35:49;51.90;;;31.10;;
37445;SDS011;23307;51.136;14.942;2023-03-01T09:38:14;50.73;;;30.27;;
37445;SDS011;23307;51.136;14.942;2023-03-01T09:40:43;49.50;;;29.37;;
37445;SDS011;23307;51.136;14.942;2023-03-01T09:43:45;49.17;;;28.73;;
37445;SDS011;23307;51.136;14.942;2023-03-01T09:46:09;44.83;;;28.90;;
37445;SDS011;23307;51.136;14.942;2023-03-01T09:48:41;45.13;;;30.33;;
37445;SDS011;23307;51.136;14.942;2023-03-01T09:51:12;44.57;;;28.53;;
37445;SDS011;23307;51.136;14.942;2023-03-01T09:53:44;43.03;;;28.23;;
37445;SDS011;23307;51.136;14.942;2023-03-01T09:58:48;46.83;;;29.60;;
37445;SDS011;23307;51.136;14.942;2023-03-01T10:01:32;44.50;;;28.83;;
37445;SDS011;23307;51.136;14.942;2023-03-01T10:04:04;40.57;;;26.33;;
37445;SDS011;23307;51.136;14.942;2023-03-01T10:07:36;38.90;;;25.70;;
37445;SDS011;23307;51.136;14.942;2023-03-01T10:09:39;43.60;;;25.47;;
37445;SDS011;23307;51.136;14.942;2023-03-01T10:12:09;38.27;;;25.33;;
37445;SDS011;23307;51.136;14.942;2023-03-01T10:17:24;42.77;;;27.70;;
37445;SDS011;23307;51.136;14.942;2023-03-01T10:19:50;44.50;;;27.20;;
37445;SDS011;23307;51.136;14.942;2023-03-01T10:22:16;41.77;;;28.03;;
37445;SDS011;23307;51.136;14.942;2023-03-01T10:24:46;39.50;;;27.47;;
37445;SDS011;23307;51.136;14.942;2023-03-01T10:27:17;38.63;;;26.03;;
37445;SDS011;23307;51.136;14.942;2023-03-01T10:29:50;34.20;;;23.40;;
37445;SDS011;23307;51.136;14.942;2023-03-01T10:32:31;33.20;;;23.10;;
37445;SDS011;23307;51.136;14.942;2023-03-01T10:34:56;35.90;;;22.30;;
37445;SDS011;23307;51.136;14.942;2023-03-01T10:37:22;35.77;;;23.87;;
37445;SDS011;23307;51.136;14.942;2023-03-01T10:42:26;37.17;;;23.93;;
37445;SDS011;23307;51.136;14.942;2023-03-01T10:44:54;35.40;;;23.20;;
37445;SDS011;23307;51.136;14.942;2023-03-01T10:47:21;37.33;;;24.23;;
37445;SDS011;23307;51.136;14.942;2023-03-01T10:50:05;36.13;;;23.93;;
37445;SDS011;23307;51.136;14.942;2023-03-01T10:52:43;35.67;;;23.30;;
37445;SDS011;23307;51.136;14.942;2023-03-01T10:58:38;37.93;;;24.27;;
37445;SDS011;23307;51.136;14.942;2023-03-01T11:03:13;30.93;;;22.50;;
37445;SDS011;23307;51.136;14.942;2023-03-01T11:05:55;31.23;;;21.40;;
37445;SDS011;23307;51.136;14.942;2023-03-01T11:08:31;30.63;;;22.07;;
37445;SDS011;23307;51.136;14.942;2023-03-01T11:11:06;29.17;;;21.23;;
37445;SDS011;23307;51.136;14.942;2023-03-01T11:13:39;31.67;;;22.57;;
37445;SDS011;23307;51.136;14.942;2023-03-01T11:16:27;32.47;;;22.77;;
37445;SDS011;23307;51.136;14.942;2023-03-01T11:19:18;33.47;;;23.57;;
37445;SDS011;23307;51.136;14.942;2023-03-01T11:21:47;33.03;;;22.57;;
37445;SDS011;23307;51.136;14.942;2023-03-01T11:24:34;28.27;;;20.53;;
37445;SDS011;23307;51.136;14.942;2023-03-01T11:27:17;29.00;;;19.37;;
37445;SDS011;23307;51.136;14.942;2023-03-01T11:29:52;25.80;;;19.00;;
37445;SDS011;23307;51.136;14.942;2023-03-01T11:32:28;28.17;;;19.67;;
37445;SDS011;23307;51.136;14.942;2023-03-01T11:35:13;26.33;;;18.43;;
37445;SDS011;23307;51.136;14.942;2023-03-01T11:40:32;26.60;;;18.07;;
37445;SDS011;23307;51.136;14.942;2023-03-01T11:43:14;23.77;;;17.20;;
37445;SDS011;23307;51.136;14.942;2023-03-01T11:45:58;22.03;;;15.67;;
37445;SDS011;23307;51.136;14.942;2023-03-01T11:51:16;24.07;;;15.27;;
37445;SDS011;23307;51.136;14.942;2023-03-01T11:59:44;22.17;;;15.67;;
37445;SDS011;23307;51.136;14.942;2023-03-01T12:07:17;23.67;;;16.20;;
37445;SDS011;23307;51.136;14.942;2023-03-01T12:09:57;21.88;;;16.38;;
37445;SDS011;23307;51.136;14.942;2023-03-01T12:12:53;21.27;;;15.43;;
37445;SDS011;23307;51.136;14.942;2023-03-01T12:15:43;21.63;;;15.70;;
37445;SDS011;23307;51.136;14.942;2023-03-01T12:18:44;21.50;;;15.30;;
37445;SDS011;23307;51.136;14.942;2023-03-01T12:21:26;19.48;;;15.07;;
37445;SDS011;23307;51.136;14.942;2023-03-01T12:27:27;19.90;;;15.38;;
37445;SDS011;23307;51.136;14.942;2023-03-01T12:29:41;20.50;;;14.82;;
37445;SDS011;23307;51.136;14.942;2023-03-01T12:32:25;20.42;;;15.05;;
37445;SDS011;23307;51.136;14.942;2023-03-01T12:37:54;20.80;;;15.60;;
37445;SDS011;23307;51.136;14.942;2023-03-01T12:43:17;20.45;;;15.82;;
37445;SDS011;23307;51.136;14.942;2023-03-01T12:45:49;20.58;;;15.52;;
37445;SDS011;23307;51.136;14.942;2023-03-01T12:48:40;22.42;;;15.40;;
37445;SDS011;23307;51.136;14.942;2023-03-01T12:51:16;18.55;;;13.00;;
37445;SDS011;23307;51.136;14.942;2023-03-01T12:53:49;17.33;;;14.10;;
37445;SDS011;23307;51.136;14.942;2023-03-01T12:56:34;18.65;;;14.35;;
37445;SDS011;23307;51.136;14.942;2023-03-01T13:01:53;18.13;;;13.50;;
37445;SDS011;23307;51.136;14.942;2023-03-01T13:04:47;16.83;;;11.70;;
37445;SDS011;23307;51.136;14.942;2023-03-01T13:07:58;16.20;;;12.02;;
37445;SDS011;23307;51.136;14.942;2023-03-01T13:10:26;15.77;;;12.30;;
37445;SDS011;23307;51.136;14.942;2023-03-01T13:15:37;16.23;;;12.30;;
37445;SDS011;23307;51.136;14.942;2023-03-01T13:23:24;11.90;;;9.93;;
37445;SDS011;23307;51.136;14.942;2023-03-01T13:31:03;13.18;;;9.80;;
37445;SDS011;23307;51.136;14.942;2023-03-01T13:35:56;12.57;;;10.25;;
37445;SDS011;23307;51.136;14.942;2023-03-01T13:41:11;13.35;;;10.18;;
37445;SDS011;23307;51.136;14.942;2023-03-01T13:43:39;12.90;;;10.57;;
37445;SDS011;23307;51.136;14.942;2023-03-01T13:46:08;14.68;;;10.60;;
37445;SDS011;23307;51.136;14.942;2023-03-01T13:48:49;14.73;;;9.82;;
37445;SDS011;23307;51.136;14.942;2023-03-01T13:51:20;13.48;;;9.98;;
37445;SDS011;23307;51.136;14.942;2023-03-01T13:53:50;17.00;;;10.75;;
37445;SDS011;23307;51.136;14.942;2023-03-01T13:56:38;12.93;;;9.90;;
37445;SDS011;23307;51.136;14.942;2023-03-01T13:59:05;12.27;;;8.90;;
37445;SDS011;23307;51.136;14.942;2023-03-01T14:01:51;16.05;;;9.75;;
37445;SDS011;23307;51.136;14.942;2023-03-01T14:04:22;11.98;;;8.82;;
37445;SDS011;23307;51.136;14.942;2023-03-01T14:06:52;10.32;;;8.15;;
37445;SDS011;23307;51.136;14.942;2023-03-01T14:09:34;11.68;;;7.97;;
37445;SDS011;23307;51.136;14.942;2023-03-01T14:12:51;11.10;;;8.38;;
37445;SDS011;23307;51.136;14.942;2023-03-01T14:17:40;12.38;;;8.98;;
37445;SDS011;23307;51.136;14.942;2023-03-01T14:20:23;11.02;;;8.77;;
37445;SDS011;23307;51.136;14.942;2023-03-01T14:22:55;10.35;;;7.95;;
37445;SDS011;23307;51.136;14.942;2023-03-01T14:25:34;10.38;;;7.70;;
37445;SDS011;23307;51.136;14.942;2023-03-01T14:30:50;9.73;;;6.78;;
37445;SDS011;23307;51.136;14.942;2023-03-01T14:33:34;9.15;;;6.90;;
37445;SDS011;23307;51.136;14.942;2023-03-01T14:41:03;12.07;;;8.70;;
37445;SDS011;23307;51.136;14.942;2023-03-01T14:43:54;10.88;;;8.77;;
37445;SDS011;23307;51.136;14.942;2023-03-01T14:46:24;12.82;;;9.23;;
37445;SDS011;23307;51.136;14.942;2023-03-01T14:48:55;12.05;;;9.65;;
37445;SDS011;23307;51.136;14.942;2023-03-01T14:51:26;13.20;;;9.55;;
37445;SDS011;23307;51.136;14.942;2023-03-01T14:53:51;13.02;;;10.13;;
37445;SDS011;23307;51.136;14.942;2023-03-01T14:56:17;13.10;;;9.63;;
37445;SDS011;23307;51.136;14.942;2023-03-01T14:58:43;17.20;;;10.10;;
37445;SDS011;23307;51.136;14.942;2023-03-01T15:01:10;13.50;;;9.77;;
37445;SDS011;23307;51.136;14.942;2023-03-01T15:03:43;14.35;;;10.98;;
37445;SDS011;23307;51.136;14.942;2023-03-01T15:06:14;13.15;;;10.02;;
37445;SDS011;23307;51.136;14.942;2023-03-01T15:08:42;16.05;;;11.00;;
37445;SDS011;23307;51.136;14.942;2023-03-01T15:13:40;15.00;;;10.98;;
37445;SDS011;23307;51.136;14.942;2023-03-01T15:16:12;15.57;;;10.95;;
37445;SDS011;23307;51.136;14.942;2023-03-01T15:18:44;15.15;;;11.43;;
37445;SDS011;23307;51.136;14.942;2023-03-01T15:23:47;18.08;;;10.90;;
37445;SDS011;23307;51.136;14.942;2023-03-01T15:26:56;13.82;;;10.27;;
37445;SDS011;23307;51.136;14.942;2023-03-01T15:29:10;17.05;;;11.80;;
37445;SDS011;23307;51.136;14.942;2023-03-01T15:31:42;15.30;;;11.48;;
37445;SDS011;23307;51.136;14.942;2023-03-01T15:34:09;16.98;;;12.13;;
37445;SDS011;23307;51.136;14.942;2023-03-01T15:36:49;17.40;;;12.13;;
37445;SDS011;23307;51.136;14.942;2023-03-01T15:41:55;16.50;;;12.48;;
37445;SDS011;23307;51.136;14.942;2023-03-01T15:44:31;16.88;;;11.80;;
37445;SDS011;23307;51.136;14.942;2023-03-01T15:46:58;18.48;;;12.10;;
37445;SDS011;23307;51.136;14.942;2023-03-01T15:49:33;17.38;;;10.68;;
37445;SDS011;23307;51.136;14.942;2023-03-01T15:52:12;19.45;;;11.95;;